Time;durP1;ratioP1;P1;durP2;ratioP2;P2;SDS_P1;SDS_P2;PMS_P1;PMS_P2;Temp;Humidity;BMP_temperature;BMP_pressure;BME280_temperature;BME280_humidity;BME280_pressure;Samples;Min_cycle;Max_cycle;Signal;HPM_P1;HPM_P2
2021/09/14 00:01:13;;;;;;;26.30;24.70;;;18.30;88.70;;;;;;5051596;28;20462;-69
2021/09/14 00:03:40;;;;;;;26.87;25.27;;;18.30;88.90;;;;;;5061174;28;20455;-70
2021/09/14 00:06:06;;;;;;;27.37;25.53;;;18.20;89.00;;;;;;5047189;28;20474;-69
2021/09/14 00:08:34;;;;;;;26.87;25.30;;;18.20;89.10;;;;;;5047234;28;20463;-70
2021/09/14 00:11:01;;;;;;;28.03;26.30;;;18.20;89.00;;;;;;5050089;28;20807;-70
2021/09/14 00:13:28;;;;;;;27.10;25.40;;;18.20;88.90;;;;;;5059131;28;20455;-70
2021/09/14 00:15:56;;;;;;;28.03;26.10;;;18.20;88.70;;;;;;5050022;28;20466;-70
2021/09/14 00:18:23;;;;;;;27.27;25.57;;;18.20;88.70;;;;;;5055371;28;20682;-69
2021/09/14 00:20:50;;;;;;;27.17;25.20;;;18.10;88.90;;;;;;5051510;28;20457;-69
2021/09/14 00:23:17;;;;;;;27.77;26.00;;;18.20;88.70;;;;;;5055118;28;20458;-70
2021/09/14 00:25:44;;;;;;;28.37;26.47;;;18.20;88.60;;;;;;5050408;28;20465;-69
2021/09/14 00:28:10;;;;;;;28.13;26.20;;;18.20;88.60;;;;;;5049446;28;20474;-69
2021/09/14 00:30:37;;;;;;;27.23;25.60;;;18.20;88.60;;;;;;5047182;28;20573;-70
2021/09/14 00:33:06;;;;;;;27.07;25.47;;;18.10;88.80;;;;;;5052308;28;20473;-69
2021/09/14 00:35:33;;;;;;;26.80;25.00;;;18.20;88.80;;;;;;5058697;28;20544;-69
2021/09/14 00:37:59;;;;;;;27.43;25.70;;;18.10;89.00;;;;;;5053567;28;20451;-69
2021/09/14 00:40:26;;;;;;;27.57;25.77;;;18.10;88.90;;;;;;5059882;28;20480;-69
2021/09/14 00:42:53;;;;;;;27.50;25.80;;;18.20;88.60;;;;;;5056542;28;20454;-69
2021/09/14 00:45:20;;;;;;;27.63;25.63;;;18.20;88.70;;;;;;5057164;28;20462;-69
2021/09/14 00:47:47;;;;;;;27.20;25.70;;;18.10;88.80;;;;;;5051834;28;20485;-69
2021/09/14 00:50:15;;;;;;;27.30;25.60;;;18.10;88.80;;;;;;5048681;28;20475;-70
2021/09/14 00:52:43;;;;;;;27.43;25.63;;;18.20;88.60;;;;;;5055536;28;20459;-70
2021/09/14 00:55:10;;;;;;;26.70;24.90;;;18.10;88.60;;;;;;5052735;28;20458;-70
2021/09/14 00:57:37;;;;;;;26.87;25.17;;;18.10;88.60;;;;;;5059346;28;20948;-70
2021/09/14 01:00:04;;;;;;;27.20;25.50;;;18.10;88.50;;;;;;5051721;28;20815;-69
2021/09/14 01:02:32;;;;;;;26.77;25.27;;;18.10;88.40;;;;;;5053159;28;20959;-70
2021/09/14 01:04:59;;;;;;;28.07;26.00;;;18.10;88.30;;;;;;5048612;28;20469;-69
2021/09/14 01:07:27;;;;;;;26.90;25.30;;;18.10;88.40;;;;;;5050453;28;20474;-69
2021/09/14 01:09:55;;;;;;;26.67;25.03;;;18.10;88.20;;;;;;5057797;28;20470;-70
2021/09/14 01:12:22;;;;;;;26.40;24.80;;;18.10;88.10;;;;;;5064885;28;20468;-70
2021/09/14 01:14:53;;;;;;;26.07;24.33;;;18.10;88.30;;;;;;5051965;28;20458;-70
2021/09/14 01:17:20;;;;;;;27.77;26.07;;;18.00;88.40;;;;;;5062338;28;20455;-70
2021/09/14 01:19:47;;;;;;;27.17;25.60;;;18.00;88.60;;;;;;5052612;28;20877;-70
2021/09/14 01:22:15;;;;;;;27.13;25.33;;;17.90;88.70;;;;;;5053120;28;20686;-70
2021/09/14 01:24:43;;;;;;;26.37;24.47;;;18.00;88.50;;;;;;5052704;28;20463;-70
2021/09/14 01:27:11;;;;;;;26.80;24.90;;;18.00;88.60;;;;;;5061065;28;20470;-70
2021/09/14 01:32:22;;;;;;;28.00;26.20;;;18.00;88.40;;;;;;5057664;28;20487;-70
2021/09/14 01:34:49;;;;;;;28.00;26.00;;;17.90;88.30;;;;;;5052968;28;21753;-70
2021/09/14 01:37:16;;;;;;;27.63;25.83;;;17.90;88.40;;;;;;5052937;28;20459;-70
2021/09/14 01:39:44;;;;;;;28.30;26.40;;;17.90;88.60;;;;;;5054457;28;20485;-70
2021/09/14 01:42:11;;;;;;;27.97;26.00;;;17.80;88.70;;;;;;5058324;28;20801;-70
2021/09/14 01:44:38;;;;;;;27.70;25.90;;;17.80;88.90;;;;;;5055727;28;20541;-70
2021/09/14 01:47:04;;;;;;;28.00;26.20;;;17.80;89.00;;;;;;5061151;28;21024;-70
2021/09/14 01:49:31;;;;;;;27.40;25.70;;;17.70;89.10;;;;;;5064238;28;20478;-70
2021/09/14 01:52:00;;;;;;;26.87;25.17;;;17.70;89.30;;;;;;5062257;28;20469;-69
2021/09/14 01:54:27;;;;;;;25.90;24.40;;;17.70;89.20;;;;;;5061142;28;20512;-70
2021/09/14 01:56:55;;;;;;;27.57;25.77;;;17.70;89.10;;;;;;5051282;28;20490;-70
2021/09/14 01:59:23;;;;;;;27.60;25.80;;;17.70;89.20;;;;;;5062275;28;20503;-70
2021/09/14 02:01:55;;;;;;;27.93;26.03;;;17.70;89.20;;;;;;5053112;28;20470;-70
2021/09/14 02:04:33;;;;;;;28.70;25.93;;;17.60;89.30;;;;;;5055835;28;20451;-70
2021/09/14 02:56:33;;;;;;;28.37;26.57;;;17.40;90.00;;;;;;5056722;28;21253;-70
2021/09/14 02:58:59;;;;;;;28.70;26.47;;;17.30;90.30;;;;;;5050411;28;20547;-70
2021/09/14 03:01:27;;;;;;;27.83;25.87;;;17.30;90.40;;;;;;5053887;28;21218;-70
2021/09/14 03:03:55;;;;;;;29.70;27.80;;;17.40;90.30;;;;;;5054446;28;20462;-70
2021/09/14 03:06:23;;;;;;;28.30;25.67;;;17.50;90.00;;;;;;5051858;28;20995;-69
2021/09/14 03:08:51;;;;;;;27.63;25.93;;;17.40;90.10;;;;;;5052268;28;20512;-70
2021/09/14 03:11:19;;;;;;;29.83;28.13;;;17.40;90.20;;;;;;5058400;28;20469;-70
2021/09/14 03:13:46;;;;;;;27.47;25.40;;;17.50;90.10;;;;;;5052862;28;20462;-69
2021/09/14 03:16:14;;;;;;;29.40;27.60;;;17.50;90.00;;;;;;5055021;28;20819;-70
2021/09/14 03:18:42;;;;;;;28.83;26.70;;;17.50;89.90;;;;;;5051532;28;20469;-70
2021/09/14 03:21:11;;;;;;;26.70;25.10;;;17.50;89.90;;;;;;5057322;28;20490;-70
2021/09/14 03:23:38;;;;;;;26.60;24.90;;;17.50;89.90;;;;;;5048863;28;20447;-69
2021/09/14 03:26:05;;;;;;;27.67;26.07;;;17.50;89.90;;;;;;5057944;28;20547;-69
2021/09/14 03:28:32;;;;;;;29.70;27.93;;;17.50;89.90;;;;;;5049288;28;20482;-69
2021/09/14 03:30:59;;;;;;;29.10;27.30;;;17.50;90.00;;;;;;5058662;28;20454;-70
2021/09/14 03:33:26;;;;;;;27.80;26.10;;;17.50;90.00;;;;;;5049792;28;20562;-69
2021/09/14 03:35:54;;;;;;;27.07;25.43;;;17.50;90.00;;;;;;5048767;28;20469;-69
2021/09/14 03:38:21;;;;;;;26.60;25.00;;;17.40;90.20;;;;;;5053735;28;20499;-69
2021/09/14 03:40:48;;;;;;;26.97;25.17;;;17.50;90.10;;;;;;5059818;28;20455;-69
2021/09/14 03:43:17;;;;;;;27.20;25.50;;;17.50;90.00;;;;;;5058876;28;20464;-69
2021/09/14 03:45:46;;;;;;;27.40;25.50;;;17.50;89.90;;;;;;5051200;28;20465;-69
2021/09/14 03:48:13;;;;;;;27.70;26.00;;;17.50;89.90;;;;;;5049275;28;21057;-69
2021/09/14 03:50:40;;;;;;;27.20;25.70;;;17.50;90.10;;;;;;5051510;28;20516;-69
2021/09/14 03:53:08;;;;;;;29.10;27.43;;;17.40;90.30;;;;;;5055699;28;20464;-69
2021/09/14 03:55:35;;;;;;;27.47;25.37;;;17.40;90.40;;;;;;5055736;28;20470;-69
2021/09/14 03:58:02;;;;;;;28.30;26.40;;;17.40;90.40;;;;;;5060602;28;20455;-69
2021/09/14 04:00:29;;;;;;;28.17;26.27;;;17.40;90.50;;;;;;5056625;28;20481;-69
2021/09/14 04:02:58;;;;;;;28.00;26.10;;;17.40;90.60;;;;;;5051594;28;20468;-69
2021/09/14 04:05:42;;;;;;;27.03;25.33;;;17.40;90.70;;;;;;5048621;28;20554;-69
2021/09/14 04:10:56;;;;;;;26.93;25.23;;;17.40;90.50;;;;;;5054139;28;20829;-69
2021/09/14 04:13:24;;;;;;;29.17;27.37;;;17.30;90.80;;;;;;5056183;28;20964;-69
2021/09/14 04:15:51;;;;;;;26.70;25.13;;;17.30;91.00;;;;;;5048922;28;20972;-69
2021/09/14 04:18:18;;;;;;;26.87;25.07;;;17.30;91.10;;;;;;5050571;28;20546;-69
2021/09/14 04:20:45;;;;;;;27.97;26.17;;;17.30;91.00;;;;;;5054770;28;20492;-70
2021/09/14 04:23:13;;;;;;;30.97;28.80;;;17.30;90.90;;;;;;5059396;28;20454;-69
2021/09/14 04:25:40;;;;;;;27.70;25.83;;;17.40;90.80;;;;;;5049961;28;20594;-69
2021/09/14 04:28:07;;;;;;;28.03;26.13;;;17.30;90.90;;;;;;5049367;28;20475;-69
2021/09/14 04:30:34;;;;;;;27.23;25.57;;;17.30;90.90;;;;;;5053481;28;21126;-69
2021/09/14 04:33:01;;;;;;;30.43;28.33;;;17.30;91.00;;;;;;5049729;28;20946;-69
2021/09/14 04:35:27;;;;;;;29.07;26.90;;;17.30;91.10;;;;;;5049514;28;20461;-69
2021/09/14 04:37:54;;;;;;;27.63;25.93;;;17.20;91.20;;;;;;5052401;28;20454;-69
2021/09/14 04:40:23;;;;;;;29.63;27.77;;;17.20;91.30;;;;;;5048603;28;20881;-69
2021/09/14 04:42:50;;;;;;;27.83;25.92;;;17.10;91.60;;;;;;5055677;28;20468;-69
2021/09/14 04:45:16;;;;;;;29.23;27.33;;;17.30;91.60;;;;;;5047395;28;20251;-71
2021/09/14 04:47:43;;;;;;;29.73;27.73;;;17.20;91.40;;;;;;5051994;28;20556;-69
2021/09/14 04:50:11;;;;;;;29.37;27.57;;;17.20;91.40;;;;;;5046684;28;20706;-69
2021/09/14 04:52:37;;;;;;;30.50;28.63;;;17.20;91.50;;;;;;5047546;28;20484;-70
2021/09/14 04:55:05;;;;;;;29.37;27.37;;;17.20;91.50;;;;;;5047505;28;20462;-69
2021/09/14 04:57:34;;;;;;;29.00;26.53;;;17.10;91.70;;;;;;5053928;28;20453;-70
2021/09/14 05:00:01;;;;;;;28.07;26.33;;;17.10;91.80;;;;;;5055071;28;20469;-71
2021/09/14 05:02:28;;;;;;;28.37;26.47;;;17.00;92.10;;;;;;5049993;28;20967;-70
2021/09/14 05:04:55;;;;;;;30.63;28.70;;;17.00;92.30;;;;;;5049845;28;20450;-70
2021/09/14 05:07:21;;;;;;;30.03;27.87;;;17.00;92.40;;;;;;5054459;28;20968;-70
2021/09/14 05:09:48;;;;;;;29.40;27.60;;;17.00;92.30;;;;;;5060676;28;20548;-70
2021/09/14 05:12:15;;;;;;;28.48;26.58;;;17.00;92.30;;;;;;5063040;28;20468;-71
2021/09/14 05:14:44;;;;;;;28.80;27.10;;;17.20;92.00;;;;;;5050812;28;20204;-69
2021/09/14 05:17:10;;;;;;;30.10;28.30;;;17.10;91.70;;;;;;5050517;28;20619;-70
2021/09/14 05:19:38;;;;;;;29.13;27.23;;;17.10;91.90;;;;;;5047837;28;21007;-71
2021/09/14 05:22:06;;;;;;;28.90;27.20;;;17.10;92.00;;;;;;5050735;28;20461;-70
2021/09/14 05:24:34;;;;;;;31.20;29.10;;;17.10;92.10;;;;;;5051581;28;20463;-70
2021/09/14 05:27:01;;;;;;;29.80;27.80;;;17.20;91.90;;;;;;5052060;28;20542;-70
2021/09/14 05:29:29;;;;;;;28.83;26.90;;;17.30;91.70;;;;;;5051685;28;20798;-71
2021/09/14 05:31:58;;;;;;;29.80;27.57;;;17.30;91.20;;;;;;5056970;28;20470;-71
2021/09/14 05:34:26;;;;;;;30.10;28.10;;;17.40;91.00;;;;;;5056320;28;20466;-70
2021/09/14 05:36:53;;;;;;;31.37;29.37;;;17.40;90.90;;;;;;5053334;28;20476;-69
2021/09/14 05:39:21;;;;;;;30.20;28.40;;;17.50;90.80;;;;;;5058005;28;21023;-69
2021/09/14 05:41:48;;;;;;;30.97;28.87;;;17.50;90.50;;;;;;5051441;28;20471;-69
2021/09/14 05:44:15;;;;;;;31.27;29.27;;;17.50;90.60;;;;;;5051368;28;20450;-69
2021/09/14 05:46:42;;;;;;;31.80;29.40;;;17.50;91.20;;;;;;5064623;28;20572;-69
2021/09/14 05:49:10;;;;;;;30.90;28.80;;;17.60;90.70;;;;;;5050096;28;20482;-70
2021/09/14 05:51:37;;;;;;;29.85;27.85;;;17.70;90.30;;;;;;5051570;28;20463;-70
2021/09/14 05:54:04;;;;;;;28.83;26.83;;;18.00;89.30;;;;;;5062493;28;20328;-69
2021/09/14 05:56:32;;;;;;;30.53;28.50;;;18.00;88.90;;;;;;5063765;28;20462;-69
2021/09/14 05:58:59;;;;;;;29.50;27.50;;;18.10;88.70;;;;;;5057939;28;20474;-69
2021/09/14 06:01:27;;;;;;;32.30;29.90;;;18.10;88.50;;;;;;5057545;28;20484;-72
2021/09/14 06:03:54;;;;;;;31.63;29.27;;;18.20;88.30;;;;;;5061129;28;20465;-69
2021/09/14 06:06:22;;;;;;;30.07;28.07;;;18.20;88.10;;;;;;5052665;28;20512;-70
2021/09/14 06:08:49;;;;;;;32.07;29.97;;;18.30;87.90;;;;;;5058741;28;20571;-70
2021/09/14 06:11:16;;;;;;;32.30;30.00;;;18.30;87.70;;;;;;5066965;28;20986;-70
2021/09/14 06:13:43;;;;;;;32.27;30.27;;;18.40;87.70;;;;;;5067476;28;20955;-69
2021/09/14 06:16:10;;;;;;;31.93;29.37;;;18.50;87.30;;;;;;5059379;28;20458;-70
2021/09/14 06:18:37;;;;;;;30.30;28.30;;;18.60;86.90;;;;;;5054920;28;20744;-71
2021/09/14 06:21:05;;;;;;;33.73;31.33;;;18.60;86.80;;;;;;5052630;28;20461;-69
2021/09/14 06:23:33;;;;;;;30.10;28.07;;;18.60;86.80;;;;;;5055139;28;20865;-69
2021/09/14 06:26:00;;;;;;;31.47;29.37;;;18.80;86.60;;;;;;5055591;28;20473;-69
2021/09/14 06:28:27;;;;;;;30.00;28.00;;;18.90;86.30;;;;;;5051502;28;20483;-68
2021/09/14 06:30:54;;;;;;;30.53;28.63;;;19.00;86.00;;;;;;5053955;28;20451;-69
2021/09/14 06:33:23;;;;;;;31.73;29.70;;;19.10;85.80;;;;;;5053778;28;20463;-69
2021/09/14 06:35:50;;;;;;;32.13;29.90;;;19.10;85.60;;;;;;5056069;28;20450;-68
2021/09/14 06:38:17;;;;;;;32.50;30.40;;;19.20;85.20;;;;;;5053970;28;20454;-69
2021/09/14 06:40:48;;;;;;;32.90;30.73;;;19.30;85.00;;;;;;5054372;28;20509;-71
2021/09/14 06:43:15;;;;;;;32.97;30.67;;;19.30;84.50;;;;;;5052117;28;20977;-70
2021/09/14 06:45:42;;;;;;;33.40;31.37;;;19.40;84.40;;;;;;5060720;28;20477;-69
2021/09/14 06:48:13;;;;;;;33.10;30.53;;;19.50;84.10;;;;;;5060913;28;20478;-69
2021/09/14 06:50:40;;;;;;;33.10;31.00;;;19.50;83.90;;;;;;5059091;28;20485;-69
2021/09/14 06:53:08;;;;;;;32.43;30.20;;;19.60;83.80;;;;;;5055322;28;20542;-69
2021/09/14 06:55:35;;;;;;;32.67;30.57;;;19.70;83.20;;;;;;5049556;28;20457;-69
2021/09/14 06:58:04;;;;;;;35.07;32.67;;;19.90;82.80;;;;;;5058300;28;20461;-69
2021/09/14 07:00:30;;;;;;;33.47;31.37;;;20.00;82.40;;;;;;5049714;28;20550;-70
2021/09/14 07:02:58;;;;;;;34.77;32.60;;;20.00;82.40;;;;;;5059457;28;20975;-70
2021/09/14 07:05:25;;;;;;;35.80;33.40;;;20.10;81.90;;;;;;5064358;28;20487;-69
2021/09/14 07:07:52;;;;;;;33.90;31.60;;;20.30;81.50;;;;;;5068413;28;20459;-69
2021/09/14 07:10:19;;;;;;;34.67;32.20;;;20.30;81.20;;;;;;5057462;28;20478;-71
2021/09/14 07:12:46;;;;;;;36.97;34.37;;;20.50;80.70;;;;;;5053628;28;20474;-69
2021/09/14 07:15:15;;;;;;;34.63;32.33;;;20.50;80.50;;;;;;5049863;28;20451;-69
2021/09/14 07:17:43;;;;;;;34.50;32.20;;;20.60;80.30;;;;;;5059401;28;20470;-69
2021/09/14 07:20:11;;;;;;;34.17;31.97;;;20.70;80.00;;;;;;5054986;28;20473;-69
2021/09/14 07:22:38;;;;;;;34.97;32.83;;;20.80;79.80;;;;;;5049114;28;20459;-69
2021/09/14 07:25:06;;;;;;;35.50;33.10;;;20.80;80.70;;;;;;5048845;28;20454;-69
2021/09/14 07:27:33;;;;;;;35.13;32.93;;;20.80;80.20;;;;;;5053637;28;20458;-69
2021/09/14 07:30:00;;;;;;;35.73;33.37;;;20.90;79.90;;;;;;5054161;28;21043;-69
2021/09/14 07:32:31;;;;;;;34.10;32.00;;;21.00;79.40;;;;;;5056736;28;21178;-69
2021/09/14 07:34:58;;;;;;;36.17;33.63;;;21.10;78.90;;;;;;5057287;28;20541;-69
2021/09/14 07:37:25;;;;;;;34.73;32.53;;;21.20;78.60;;;;;;5052457;28;21148;-68
2021/09/14 07:39:52;;;;;;;36.40;33.93;;;21.30;78.20;;;;;;5054433;28;20477;-68
2021/09/14 07:42:19;;;;;;;33.40;31.20;;;21.40;78.20;;;;;;5055833;28;20550;-68
2021/09/14 07:44:46;;;;;;;34.83;32.43;;;21.50;78.00;;;;;;5056508;28;20469;-69
2021/09/14 07:47:13;;;;;;;34.73;32.40;;;21.60;77.40;;;;;;5058255;28;20463;-69
2021/09/14 07:49:41;;;;;;;34.57;32.13;;;21.70;77.20;;;;;;5052806;28;20985;-69
2021/09/14 07:52:08;;;;;;;33.90;31.60;;;21.80;76.70;;;;;;5057875;28;20557;-70
2021/09/14 07:54:36;;;;;;;36.27;33.77;;;21.80;76.50;;;;;;5056930;28;20488;-69
2021/09/14 07:57:02;;;;;;;35.07;32.23;;;21.90;76.40;;;;;;5067520;28;20552;-69
2021/09/14 07:59:30;;;;;;;34.43;32.00;;;21.90;76.10;;;;;;5051999;28;20490;-69
2021/09/14 08:01:57;;;;;;;33.10;31.00;;;22.00;75.90;;;;;;5051634;28;20532;-68
2021/09/14 08:04:24;;;;;;;35.03;32.63;;;22.10;75.90;;;;;;5055246;28;20856;-68
2021/09/14 08:06:52;;;;;;;34.13;31.47;;;22.30;75.50;;;;;;5057267;28;20943;-69
2021/09/14 08:09:21;;;;;;;33.33;31.13;;;22.40;75.10;;;;;;5049006;28;20476;-69
2021/09/14 08:11:48;;;;;;;32.10;30.17;;;22.50;74.20;;;;;;5048577;28;20516;-68
2021/09/14 08:14:15;;;;;;;34.60;32.00;;;22.60;73.60;;;;;;5062978;28;20465;-69
2021/09/14 08:16:42;;;;;;;32.30;30.10;;;22.70;73.10;;;;;;5067446;28;20450;-69
2021/09/14 08:19:09;;;;;;;33.70;31.57;;;22.80;72.60;;;;;;5054619;28;20874;-68
2021/09/14 08:21:36;;;;;;;32.63;30.53;;;22.90;72.10;;;;;;5052226;28;20586;-68
2021/09/14 08:24:08;;;;;;;31.43;29.23;;;23.00;71.60;;;;;;5059091;28;20459;-68
2021/09/14 08:26:34;;;;;;;31.50;29.50;;;23.10;71.30;;;;;;5054975;28;20534;-68
2021/09/14 08:29:01;;;;;;;33.27;31.07;;;23.30;70.90;;;;;;5052664;28;20481;-72
2021/09/14 08:31:28;;;;;;;32.00;29.87;;;23.30;70.70;;;;;;5051449;28;20552;-68
2021/09/14 08:33:56;;;;;;;32.17;30.07;;;23.60;70.00;;;;;;5056487;28;20505;-67
2021/09/14 08:36:23;;;;;;;33.27;31.23;;;23.60;70.10;;;;;;5057915;28;20459;-68
2021/09/14 08:38:50;;;;;;;33.67;31.20;;;23.70;70.10;;;;;;5052958;28;21015;-68
2021/09/14 08:41:18;;;;;;;33.80;31.70;;;23.80;69.70;;;;;;5051194;28;20940;-68
2021/09/14 08:43:47;;;;;;;33.07;30.87;;;23.90;69.70;;;;;;5050452;28;20464;-67
2021/09/14 08:46:16;;;;;;;33.03;30.93;;;23.90;69.30;;;;;;5054284;28;20450;-68
2021/09/14 08:48:44;;;;;;;33.60;31.27;;;24.00;69.10;;;;;;5054572;28;20569;-68
2021/09/14 08:51:12;;;;;;;32.80;30.70;;;24.10;69.20;;;;;;5050726;28;20462;-68
2021/09/14 08:53:39;;;;;;;33.73;31.60;;;24.20;68.90;;;;;;5058174;28;20546;-68
2021/09/14 08:56:09;;;;;;;32.03;30.03;;;24.30;68.80;;;;;;5049587;28;20883;-68
2021/09/14 08:58:38;;;;;;;32.80;30.70;;;24.40;68.60;;;;;;5055877;28;20459;-68
2021/09/14 09:01:10;;;;;;;33.33;31.23;;;24.50;68.10;;;;;;5058196;28;20462;-68
2021/09/14 09:03:38;;;;;;;33.43;31.30;;;24.60;67.90;;;;;;5053510;28;20454;-68
2021/09/14 09:06:06;;;;;;;33.50;31.30;;;24.60;68.00;;;;;;5053747;28;20457;-68
2021/09/14 09:08:34;;;;;;;33.97;31.87;;;24.70;67.80;;;;;;5057121;28;20980;-68
2021/09/14 09:11:03;;;;;;;33.20;31.10;;;24.80;67.60;;;;;;5061174;28;20663;-68
2021/09/14 09:13:31;;;;;;;34.57;32.47;;;24.90;67.50;;;;;;5065690;28;20828;-68
2021/09/14 09:16:00;;;;;;;33.53;31.63;;;25.00;66.90;;;;;;5061547;28;20476;-69
2021/09/14 09:18:27;;;;;;;33.90;31.50;;;25.10;66.70;;;;;;5051283;28;20457;-69
2021/09/14 09:21:02;;;;;;;36.93;34.70;;;25.20;66.40;;;;;;5051605;28;20824;-69
2021/09/14 09:23:29;;;;;;;36.20;34.00;;;25.30;66.30;;;;;;5056845;28;20888;-69
2021/09/14 09:26:06;;;;;;;33.60;31.60;;;25.30;65.90;;;;;;5062132;28;20457;-69
2021/09/14 09:28:33;;;;;;;33.50;31.50;;;25.40;65.70;;;;;;5051179;28;20462;-69
2021/09/14 09:31:08;;;;;;;34.20;32.10;;;25.50;65.70;;;;;;5052539;28;20986;-69
2021/09/14 09:33:36;;;;;;;35.10;32.90;;;25.60;65.30;;;;;;5070484;28;20820;-69
2021/09/14 09:36:05;;;;;;;33.63;31.43;;;25.70;65.10;;;;;;5064165;28;20956;-70
2021/09/14 09:38:44;;;;;;;33.80;31.57;;;25.90;64.90;;;;;;5050915;28;20477;-69
2021/09/14 09:41:15;;;;;;;34.80;32.43;;;26.10;64.50;;;;;;5054692;28;20454;-70
2021/09/14 09:43:42;;;;;;;34.57;32.37;;;26.20;64.20;;;;;;5054522;28;20459;-70
2021/09/14 09:46:17;;;;;;;36.53;34.10;;;26.30;64.00;;;;;;5052190;28;20486;-69
2021/09/14 09:48:44;;;;;;;34.47;32.27;;;26.30;63.90;;;;;;5053001;28;20557;-69
2021/09/14 09:51:11;;;;;;;36.70;34.40;;;26.40;63.20;;;;;;5062564;28;20549;-69
2021/09/14 09:53:38;;;;;;;36.63;34.23;;;26.60;63.10;;;;;;5063051;28;20458;-69
2021/09/14 09:56:06;;;;;;;37.10;34.60;;;26.70;63.00;;;;;;5053786;28;20458;-69
2021/09/14 09:58:33;;;;;;;34.17;31.87;;;26.70;62.60;;;;;;5054693;28;20468;-69
2021/09/14 10:01:05;;;;;;;36.13;33.83;;;26.70;62.50;;;;;;5053412;28;20485;-70
2021/09/14 10:03:36;;;;;;;35.10;32.80;;;26.80;62.60;;;;;;5059051;28;20549;-72
2021/09/14 10:06:08;;;;;;;34.87;32.67;;;26.90;62.60;;;;;;5050796;28;20473;-71
2021/09/14 10:08:36;;;;;;;36.33;33.80;;;27.00;62.40;;;;;;5058163;28;20816;-71
2021/09/14 10:11:03;;;;;;;36.67;34.37;;;27.00;62.50;;;;;;5055727;28;20483;-71
2021/09/14 10:13:31;;;;;;;34.47;32.27;;;27.10;62.30;;;;;;5054061;28;20529;-71
2021/09/14 10:15:59;;;;;;;38.13;35.90;;;27.20;62.20;;;;;;5057097;28;20859;-71
2021/09/14 10:18:30;;;;;;;35.50;33.20;;;27.30;61.50;;;;;;5050123;28;20482;-71
2021/09/14 10:21:00;;;;;;;34.73;32.53;;;27.40;61.70;;;;;;5054536;28;20554;-71
2021/09/14 10:23:34;;;;;;;33.53;31.47;;;27.40;61.70;;;;;;5068717;28;20529;-71
2021/09/14 10:26:07;;;;;;;34.30;32.20;;;27.50;61.30;;;;;;5060343;28;20553;-72
2021/09/14 10:28:46;;;;;;;34.60;32.50;;;27.50;61.20;;;;;;5063771;28;20514;-73
2021/09/14 10:31:20;;;;;;;35.20;33.00;;;27.60;61.10;;;;;;5067911;28;20485;-75
2021/09/14 10:33:47;;;;;;;36.27;34.07;;;27.60;60.90;;;;;;5055798;28;20948;-71
2021/09/14 10:36:15;;;;;;;35.50;33.40;;;27.70;60.70;;;;;;5052978;28;20465;-71
2021/09/14 10:38:49;;;;;;;34.37;32.10;;;27.70;60.20;;;;;;5053186;28;21039;-71
2021/09/14 10:41:18;;;;;;;37.27;34.97;;;27.80;59.90;;;;;;5051450;28;20491;-70
2021/09/14 10:43:55;;;;;;;36.03;33.83;;;27.80;60.20;;;;;;5050222;28;20455;-71
2021/09/14 10:46:23;;;;;;;34.47;32.27;;;27.90;60.60;;;;;;5049146;28;20463;-70
2021/09/14 10:48:52;;;;;;;35.77;33.57;;;27.90;60.60;;;;;;5049349;28;20570;-70
2021/09/14 10:51:21;;;;;;;35.57;33.30;;;28.10;60.40;;;;;;5058588;28;20474;-70
2021/09/14 10:53:56;;;;;;;34.80;32.70;;;28.10;60.40;;;;;;5057223;28;20454;-69
2021/09/14 10:56:23;;;;;;;36.00;33.80;;;28.20;60.20;;;;;;5054160;28;20541;-69
2021/09/14 10:58:50;;;;;;;35.33;33.07;;;28.30;59.50;;;;;;5058180;28;20839;-69
2021/09/14 11:01:23;;;;;;;34.90;32.50;;;28.40;59.50;;;;;;5060171;28;21134;-69
2021/09/14 11:04:04;;;;;;;37.20;34.90;;;28.40;59.50;;;;;;5057690;28;20537;-69
2021/09/14 11:06:32;;;;;;;39.20;36.40;;;28.60;59.60;;;;;;5057880;28;20463;-69
2021/09/14 11:09:01;;;;;;;38.33;35.57;;;28.70;59.10;;;;;;5054349;28;20486;-69
2021/09/14 11:11:28;;;;;;;38.13;35.60;;;28.90;59.00;;;;;;5049117;28;20526;-69
2021/09/14 11:13:55;;;;;;;38.23;35.80;;;29.00;58.40;;;;;;5050538;28;20550;-69
2021/09/14 11:16:22;;;;;;;38.70;36.13;;;29.00;58.10;;;;;;5056543;28;20553;-69
2021/09/14 11:18:49;;;;;;;34.50;32.40;;;29.00;57.80;;;;;;5056618;28;20482;-69
2021/09/14 11:21:18;;;;;;;36.97;34.47;;;28.50;58.60;;;;;;5053742;28;20458;-69
2021/09/14 11:23:49;;;;;;;35.70;33.30;;;28.20;59.50;;;;;;5060762;28;20876;-69
2021/09/14 11:26:18;;;;;;;34.17;32.07;;;28.40;59.40;;;;;;5049629;28;20483;-69
2021/09/14 11:28:55;;;;;;;35.87;33.37;;;28.80;58.80;;;;;;5060351;28;20568;-69
2021/09/14 11:31:22;;;;;;;36.33;33.40;;;29.00;57.10;;;;;;5066659;28;20465;-69
2021/09/14 11:33:49;;;;;;;36.40;34.20;;;28.80;57.40;;;;;;5057799;28;21042;-69
2021/09/14 11:36:16;;;;;;;34.80;32.47;;;28.80;57.70;;;;;;5052168;28;20480;-69
2021/09/14 11:38:43;;;;;;;38.40;36.03;;;28.90;57.90;;;;;;5069003;28;20474;-69
2021/09/14 11:41:14;;;;;;;34.73;32.53;;;29.20;58.00;;;;;;5052538;28;20472;-69
2021/09/14 11:43:43;;;;;;;37.20;35.13;;;29.60;56.90;;;;;;5051770;28;20466;-69
2021/09/14 11:46:15;;;;;;;36.60;34.30;;;29.70;56.20;;;;;;5048385;28;20553;-69
2021/09/14 11:48:42;;;;;;;38.27;35.97;;;29.60;56.20;;;;;;5060985;28;20479;-69
2021/09/14 11:51:11;;;;;;;35.93;33.63;;;29.40;57.00;;;;;;5051203;28;20969;-69
2021/09/14 11:53:39;;;;;;;37.30;35.00;;;29.40;57.30;;;;;;5051798;28;20452;-69
2021/09/14 11:56:15;;;;;;;36.37;33.97;;;29.30;57.10;;;;;;5055237;28;20455;-69
2021/09/14 11:58:44;;;;;;;35.40;33.10;;;29.20;57.70;;;;;;5054035;28;20475;-69
2021/09/14 12:01:14;;;;;;;35.60;33.40;;;29.20;57.50;;;;;;5051161;28;20468;-69
2021/09/14 12:03:44;;;;;;;35.07;32.97;;;29.30;58.00;;;;;;5056319;28;20480;-69
2021/09/14 12:06:13;;;;;;;37.57;35.17;;;29.40;57.60;;;;;;5056046;28;20511;-69
2021/09/14 12:08:42;;;;;;;37.60;34.80;;;29.50;57.60;;;;;;5068439;28;20474;-69
2021/09/14 12:11:10;;;;;;;35.87;33.57;;;29.70;57.40;;;;;;5050877;28;21011;-69
2021/09/14 12:13:40;;;;;;;35.87;33.67;;;29.80;57.20;;;;;;5048888;28;20455;-69
2021/09/14 12:16:12;;;;;;;35.57;33.00;;;29.90;57.20;;;;;;5050369;28;21003;-69
2021/09/14 12:18:40;;;;;;;37.53;35.23;;;29.80;57.10;;;;;;5047707;28;20470;-69
2021/09/14 12:21:07;;;;;;;38.13;35.63;;;29.40;57.70;;;;;;5053866;28;20450;-69
2021/09/14 12:23:35;;;;;;;36.63;34.10;;;29.00;58.20;;;;;;5064315;28;20462;-69
2021/09/14 12:26:02;;;;;;;35.10;32.90;;;28.60;59.10;;;;;;5049597;28;20538;-69
2021/09/14 12:28:29;;;;;;;37.20;34.70;;;28.30;59.20;;;;;;5060822;28;20464;-69
2021/09/14 12:30:57;;;;;;;37.57;35.20;;;28.30;59.60;;;;;;5048998;28;20483;-69
2021/09/14 12:33:24;;;;;;;38.83;36.63;;;28.10;59.80;;;;;;5055312;28;20459;-69
2021/09/14 12:35:51;;;;;;;35.97;33.43;;;28.10;59.80;;;;;;5048004;28;20539;-70
2021/09/14 12:38:19;;;;;;;36.70;34.40;;;28.20;59.60;;;;;;5050113;28;21258;-69
2021/09/14 12:40:45;;;;;;;38.60;36.10;;;28.20;59.40;;;;;;5050979;28;20454;-69
2021/09/14 12:43:12;;;;;;;36.73;34.03;;;28.30;59.30;;;;;;5051009;28;20464;-69
2021/09/14 12:45:39;;;;;;;37.03;34.63;;;28.30;59.20;;;;;;5049678;28;20476;-69
2021/09/14 12:48:08;;;;;;;37.00;34.30;;;28.30;59.20;;;;;;5055474;28;20821;-69
2021/09/14 12:50:35;;;;;;;36.10;33.27;;;28.10;59.40;;;;;;5051480;28;20474;-69
2021/09/14 12:53:04;;;;;;;34.87;32.63;;;27.90;60.10;;;;;;5054402;28;20454;-69
2021/09/14 12:55:34;;;;;;;36.90;34.50;;;27.90;60.40;;;;;;5050826;28;20467;-69
2021/09/14 12:58:02;;;;;;;35.77;33.57;;;28.10;59.60;;;;;;5057374;28;20550;-69
2021/09/14 13:00:30;;;;;;;59.10;38.60;;;28.10;59.40;;;;;;5053166;28;20826;-69
2021/09/14 13:02:57;;;;;;;37.87;35.47;;;28.20;59.50;;;;;;5052333;28;20462;-69
2021/09/14 13:05:27;;;;;;;37.40;34.90;;;28.50;58.70;;;;;;5052327;28;20463;-69
2021/09/14 13:07:54;;;;;;;34.87;32.67;;;28.40;59.00;;;;;;5053919;28;20953;-69
2021/09/14 13:10:22;;;;;;;37.17;34.53;;;28.30;58.90;;;;;;5044246;28;20501;-69
2021/09/14 13:12:50;;;;;;;37.00;34.70;;;28.40;58.90;;;;;;5052646;28;20809;-69
2021/09/14 13:18:15;;;;;;;34.50;32.40;;;28.70;58.30;;;;;;5009009;28;20583;-70
2021/09/14 13:20:43;;;;;;;38.87;36.27;;;29.00;57.60;;;;;;5033820;28;20467;-71
2021/09/14 13:23:10;;;;;;;36.60;34.10;;;29.20;57.40;;;;;;5055611;28;20458;-71
2021/09/14 13:25:37;;;;;;;37.30;34.80;;;29.30;57.20;;;;;;5054442;28;20458;-71
2021/09/14 13:28:04;;;;;;;37.27;34.87;;;29.40;56.80;;;;;;5059139;28;20458;-71
2021/09/14 13:30:31;;;;;;;36.53;33.97;;;29.40;56.80;;;;;;5047102;28;20847;-71